Time;durP1;ratioP1;P1;durP2;ratioP2;P2;SDS_P1;SDS_P2;PMS_P1;PMS_P2;Temp;Humidity;BMP_temperature;BMP_pressure;BME280_temperature;BME280_humidity;BME280_pressure;Samples;Min_cycle;Max_cycle;Signal;HPM_P1;HPM_P2
2022/10/22 00:00:12;;;;;;;2.65;1.75;;;;;;;16.97;100.00;101010.34;4967510;28;20045;-86
2022/10/22 00:02:38;;;;;;;3.30;1.90;;;;;;;16.97;100.00;100998.00;4967443;28;20050;-87
2022/10/22 00:05:04;;;;;;;3.42;1.90;;;;;;;17.06;100.00;101004.00;4964894;28;20033;-87
2022/10/22 00:07:29;;;;;;;4.85;2.10;;;;;;;17.09;100.00;101004.47;4967045;28;20041;-87
2022/10/22 00:09:55;;;;;;;5.32;2.10;;;;;;;17.13;100.00;101004.97;4965654;28;20043;-87
2022/10/22 00:12:20;;;;;;;5.40;2.45;;;;;;;17.14;100.00;101003.97;4969109;28;20077;-87
2022/10/22 00:14:47;;;;;;;3.85;2.00;;;;;;;17.15;100.00;101008.25;4970405;28;20015;-88
2022/10/22 00:17:12;;;;;;;5.47;2.15;;;;;;;17.21;100.00;100994.38;4995038;28;20038;-88
2022/10/22 00:19:38;;;;;;;4.88;2.35;;;;;;;17.23;100.00;101000.28;4979316;28;20045;-87
2022/10/22 00:22:04;;;;;;;4.65;2.05;;;;;;;17.20;100.00;101003.28;4973668;28;20494;-87
2022/10/22 00:24:31;;;;;;;3.65;1.60;;;;;;;17.19;100.00;101006.91;4967428;28;20085;-87
2022/10/22 00:26:56;;;;;;;6.28;2.10;;;;;;;17.17;100.00;101003.63;4964637;28;20552;-87
2022/10/22 00:29:22;;;;;;;6.93;1.70;;;;;;;17.10;100.00;101008.75;4965686;28;20040;-87
2022/10/22 00:31:48;;;;;;;5.35;2.33;;;;;;;17.02;100.00;101008.81;4969732;28;20514;-87
2022/10/22 00:34:16;;;;;;;5.82;1.77;;;;;;;16.99;100.00;101008.34;4966061;28;20023;-87
2022/10/22 00:36:42;;;;;;;8.23;2.00;;;;;;;16.96;100.00;101009.50;4967545;28;20031;-88
2022/10/22 00:39:08;;;;;;;4.80;2.60;;;;;;;16.90;100.00;100997.88;4967113;28;20030;-88
2022/10/22 00:41:33;;;;;;;4.78;1.52;;;;;;;16.86;100.00;100996.56;4965560;28;20076;-88
2022/10/22 00:44:04;;;;;;;4.50;2.15;;;;;;;16.86;100.00;100988.66;4966941;28;20094;-87
2022/10/22 00:46:29;;;;;;;2.28;1.48;;;;;;;16.90;100.00;100987.34;4968685;28;20037;-88
2022/10/22 00:48:57;;;;;;;7.75;2.42;;;;;;;16.99;100.00;100992.56;4965481;28;20027;-87
2022/10/22 00:51:27;;;;;;;5.30;1.88;;;;;;;17.01;100.00;100988.75;4966754;28;20453;-87
2022/10/22 00:54:01;;;;;;;3.65;1.92;;;;;;;17.08;100.00;100994.13;4966198;28;20082;-88
2022/10/22 00:56:26;;;;;;;7.97;2.30;;;;;;;17.08;100.00;100978.31;4963710;28;20216;-87
2022/10/22 00:58:55;;;;;;;5.55;2.20;;;;;;;17.05;100.00;100970.78;4963814;28;20085;-87
2022/10/22 01:01:24;;;;;;;4.03;2.00;;;;;;;17.04;100.00;100974.41;4967098;28;20468;-87
2022/10/22 01:03:51;;;;;;;6.03;1.90;;;;;;;17.02;100.00;100965.84;4964986;28;20034;-88
2022/10/22 01:06:26;;;;;;;5.35;2.17;;;;;;;17.06;100.00;100972.41;4970543;28;20078;-87
2022/10/22 01:09:06;;;;;;;3.80;2.15;;;;;;;17.03;100.00;100965.69;4965327;28;20023;-87
2022/10/22 01:11:47;;;;;;;7.28;2.75;;;;;;;16.98;100.00;100964.59;4969582;28;20058;-88
2022/10/22 01:14:33;;;;;;;6.03;1.92;;;;;;;16.86;100.00;100951.81;4972438;28;20057;-87
2022/10/22 01:17:08;;;;;;;3.65;1.85;;;;;;;16.77;100.00;100950.22;4972320;28;20850;-87
2022/10/22 01:19:46;;;;;;;5.38;2.40;;;;;;;16.71;100.00;100950.91;4964537;28;20141;-87
2022/10/22 01:22:37;;;;;;;3.15;1.52;;;;;;;16.68;100.00;100945.19;4965757;28;20109;-87
2022/10/22 01:25:05;;;;;;;4.50;1.88;;;;;;;16.66;100.00;100950.63;4968455;28;20149;-88
2022/10/22 01:27:46;;;;;;;9.52;2.20;;;;;;;16.67;100.00;100951.44;4962147;28;20403;-88
2022/10/22 01:30:13;;;;;;;5.53;1.95;;;;;;;16.65;100.00;100946.34;4963158;28;20639;-87
2022/10/22 01:32:45;;;;;;;6.47;2.20;;;;;;;16.64;100.00;100949.97;4964164;28;20038;-88
2022/10/22 01:35:15;;;;;;;2.15;1.50;;;;;;;16.62;100.00;100938.75;4949259;28;20047;-87
2022/10/22 01:37:48;;;;;;;5.18;1.98;;;;;;;16.60;100.00;100927.59;4965723;28;20493;-87
2022/10/22 01:40:15;;;;;;;6.13;2.10;;;;;;;16.57;100.00;100914.78;4966705;28;20038;-88
2022/10/22 01:42:40;;;;;;;4.28;2.22;;;;;;;16.55;100.00;100916.75;4960892;28;20398;-88
2022/10/22 01:45:13;;;;;;;5.13;2.88;;;;;;;16.53;100.00;100919.59;4964739;28;20034;-88
2022/10/22 01:48:15;;;;;;;9.68;2.58;;;;;;;16.48;100.00;100916.66;4965054;28;20452;-87
2022/10/22 01:50:49;;;;;;;2.53;1.77;;;;;;;16.45;100.00;100924.88;4965992;28;20387;-87
2022/10/22 01:53:18;;;;;;;7.97;2.60;;;;;;;16.44;100.00;100920.63;4968068;28;20042;-87
2022/10/22 01:56:02;;;;;;;3.60;2.17;;;;;;;16.41;100.00;100912.25;4964042;28;20281;-87
2022/10/22 01:58:44;;;;;;;7.97;3.03;;;;;;;16.39;100.00;100893.19;4959921;28;20102;-87
2022/10/22 02:01:27;;;;;;;6.57;2.28;;;;;;;16.35;100.00;100894.53;4967184;28;20114;-87
2022/10/22 02:04:21;;;;;;;8.70;2.78;;;;;;;16.35;100.00;100889.28;4964210;28;20030;-87
2022/10/22 02:06:50;;;;;;;3.58;2.42;;;;;;;16.37;100.00;100889.91;4966024;28;20042;-88
2022/10/22 02:09:19;;;;;;;5.65;2.83;;;;;;;16.35;100.00;100890.09;4963501;28;20070;-88
2022/10/22 02:11:46;;;;;;;6.75;2.35;;;;;;;16.39;100.00;100901.91;4965866;28;20031;-88
2022/10/22 02:14:14;;;;;;;5.10;2.53;;;;;;;16.40;100.00;100887.75;4979457;28;20034;-88
2022/10/22 02:16:46;;;;;;;6.40;2.50;;;;;;;16.44;100.00;100885.63;4965155;28;20034;-87
2022/10/22 02:19:38;;;;;;;5.88;2.33;;;;;;;16.48;100.00;100881.66;4963045;28;20525;-87
2022/10/22 02:22:03;;;;;;;6.47;2.25;;;;;;;16.55;100.00;100885.19;4964617;28;20058;-87
2022/10/22 02:24:30;;;;;;;10.63;2.53;;;;;;;16.58;100.00;100890.94;4967589;28;20478;-87
2022/10/22 02:27:29;;;;;;;6.35;2.30;;;;;;;16.57;100.00;100885.84;4963416;28;20990;-87
2022/10/22 02:30:01;;;;;;;9.27;2.92;;;;;;;16.59;100.00;100875.97;4966382;28;20046;-87
2022/10/22 02:32:33;;;;;;;6.18;1.90;;;;;;;16.60;100.00;100877.59;4963910;28;20069;-87
2022/10/22 02:35:00;;;;;;;5.40;2.53;;;;;;;16.66;100.00;100870.88;4967486;28;20115;-87
2022/10/22 02:37:27;;;;;;;4.32;2.38;;;;;;;16.71;100.00;100868.53;4963486;28;20371;-88
2022/10/22 02:39:55;;;;;;;4.75;2.22;;;;;;;16.78;100.00;100862.41;4965854;28;20113;-87
2022/10/22 02:42:22;;;;;;;4.22;1.83;;;;;;;16.85;100.00;100852.81;4962712;28;20440;-87
2022/10/22 02:44:48;;;;;;;4.85;1.60;;;;;;;16.89;100.00;100853.28;4994491;28;20030;-87
2022/10/22 02:47:13;;;;;;;4.15;2.03;;;;;;;16.94;100.00;100840.41;4980540;28;20050;-87
2022/10/22 02:49:39;;;;;;;5.10;2.17;;;;;;;16.96;100.00;100843.69;4975004;28;20034;-88
2022/10/22 02:52:04;;;;;;;7.22;1.85;;;;;;;16.98;100.00;100843.53;4966108;28;20078;-88
2022/10/22 02:54:30;;;;;;;6.90;1.88;;;;;;;17.00;100.00;100852.88;4970902;28;20035;-88
2022/10/22 02:56:55;;;;;;;7.18;1.95;;;;;;;17.03;100.00;100851.69;4969669;28;20313;-87
2022/10/22 02:59:20;;;;;;;7.10;1.70;;;;;;;17.02;100.00;100853.50;4968724;28;20447;-87
2022/10/22 03:01:46;;;;;;;4.65;1.95;;;;;;;17.01;100.00;100854.50;4968595;28;20748;-86
2022/10/22 03:04:11;;;;;;;6.43;2.17;;;;;;;17.00;100.00;100852.88;4969588;28;20035;-87
2022/10/22 03:06:37;;;;;;;5.40;1.63;;;;;;;17.02;100.00;100850.84;4968715;28;20034;-87
2022/10/22 03:09:02;;;;;;;6.65;2.25;;;;;;;17.05;100.00;100852.31;4970530;28;20159;-87
2022/10/22 03:11:27;;;;;;;7.07;1.95;;;;;;;17.04;100.00;100861.22;4967398;28;20030;-87
2022/10/22 03:13:53;;;;;;;7.30;2.00;;;;;;;17.05;100.00;100849.69;4966910;28;20030;-88
2022/10/22 03:16:18;;;;;;;6.38;1.67;;;;;;;17.09;100.00;100854.41;4968702;28;20034;-88
2022/10/22 03:18:44;;;;;;;5.15;1.85;;;;;;;17.09;100.00;100845.72;4971225;28;20034;-88
2022/10/22 03:21:19;;;;;;;8.30;1.80;;;;;;;17.06;100.00;100846.88;4967201;28;20039;-88
2022/10/22 03:23:46;;;;;;;;;;;;;;;17.03;100.00;100857.75;4984430;28;20048;-88
2022/10/22 03:26:13;;;;;;;6.88;1.95;;;;;;;17.06;100.00;100856.59;4970670;28;20134;-87
2022/10/22 03:28:40;;;;;;;7.05;1.92;;;;;;;17.07;100.00;100847.69;4966520;28;20034;-88
2022/10/22 03:31:05;;;;;;;4.82;2.53;;;;;;;17.08;100.00;100839.63;4969013;28;20430;-88
2022/10/22 03:33:31;;;;;;;6.13;1.95;;;;;;;17.07;100.00;100832.72;4968069;28;20484;-88
2022/10/22 03:35:57;;;;;;;7.18;2.70;;;;;;;17.08;100.00;100833.53;4968853;28;20073;-87
2022/10/22 03:38:22;;;;;;;3.25;1.92;;;;;;;17.13;100.00;100832.00;4969297;28;20042;-87
2022/10/22 03:40:48;;;;;;;5.15;1.75;;;;;;;17.15;100.00;100840.56;4966781;28;20598;-87
2022/10/22 03:43:15;;;;;;;6.82;2.85;;;;;;;17.14;100.00;100832.84;4966743;28;20035;-88
2022/10/22 03:45:40;;;;;;;7.97;3.03;;;;;;;17.16;100.00;100830.84;4966639;28;20038;-88
2022/10/22 03:48:06;;;;;;;6.43;2.38;;;;;;;17.19;100.00;100830.47;4969813;28;20042;-88
2022/10/22 03:50:31;;;;;;;8.30;2.35;;;;;;;17.22;100.00;100830.13;4969123;28;20030;-88
2022/10/22 03:52:57;;;;;;;5.80;2.40;;;;;;;17.21;100.00;100823.22;4970280;28;20035;-88
2022/10/22 03:55:23;;;;;;;10.88;2.30;;;;;;;17.22;100.00;100843.28;4966503;28;20510;-87
2022/10/22 03:57:48;;;;;;;8.10;2.30;;;;;;;17.19;100.00;100831.31;4967439;28;20030;-87
2022/10/22 04:00:14;;;;;;;8.15;2.42;;;;;;;17.19;100.00;100841.03;4964492;28;20254;-88
2022/10/22 04:02:40;;;;;;;5.18;2.33;;;;;;;17.18;100.00;100849.91;4965926;28;20037;-87
2022/10/22 04:05:06;;;;;;;4.40;2.00;;;;;;;17.19;100.00;100847.09;4966331;28;20042;-88
2022/10/22 04:07:31;;;;;;;5.28;1.95;;;;;;;17.21;100.00;100846.94;4968756;28;20109;-88
2022/10/22 04:09:56;;;;;;;5.47;2.17;;;;;;;17.23;100.00;100852.84;4967841;28;20030;-88
2022/10/22 04:12:22;;;;;;;7.32;2.70;;;;;;;17.17;100.00;100841.19;4966019;28;20256;-88
2022/10/22 04:14:47;;;;;;;7.45;2.60;;;;;;;17.12;100.00;100840.91;4966621;28;20632;-87
2022/10/22 04:17:13;;;;;;;5.60;2.67;;;;;;;17.13;100.00;100832.00;4967609;28;20197;-87
2022/10/22 04:19:38;;;;;;;6.82;3.00;;;;;;;17.11;100.00;100844.53;4966330;28;20030;-87
2022/10/22 04:22:04;;;;;;;7.75;2.65;;;;;;;17.09;100.00;100843.91;4969338;28;20035;-88
2022/10/22 04:24:30;;;;;;;9.30;2.85;;;;;;;17.17;100.00;100843.00;4968560;28;20390;-88
2022/10/22 04:26:56;;;;;;;9.18;2.92;;;;;;;17.21;100.00;100857.47;4965092;28;20495;-88
2022/10/22 04:29:22;;;;;;;6.68;2.60;;;;;;;17.25;100.00;100848.22;4965711;28;20031;-87
2022/10/22 04:31:48;;;;;;;8.63;2.85;;;;;;;17.27;100.00;100837.50;4968409;28;20035;-87
2022/10/22 04:34:13;;;;;;;5.45;2.20;;;;;;;17.25;100.00;100840.31;4964874;28;20061;-88
2022/10/22 04:36:39;;;;;;;8.60;3.05;;;;;;;17.26;100.00;100847.22;4967659;28;20457;-87
2022/10/22 04:39:05;;;;;;;7.05;3.35;;;;;;;17.28;100.00;100834.69;4964331;28;20035;-87
2022/10/22 04:41:33;;;;;;;7.75;3.05;;;;;;;17.29;100.00;100833.69;4965454;28;20094;-87
2022/10/22 04:43:59;;;;;;;5.90;2.40;;;;;;;17.32;100.00;100833.34;4966459;28;20039;-88
2022/10/22 04:46:27;;;;;;;6.32;3.15;;;;;;;17.34;100.00;100833.97;4966218;28;20035;-87
2022/10/22 04:48:52;;;;;;;10.27;3.05;;;;;;;17.37;100.00;100833.63;4962699;28;20027;-89
2022/10/22 04:51:20;;;;;;;8.45;2.83;;;;;;;17.39;100.00;100826.34;4965258;28;20066;-87
2022/10/22 04:53:46;;;;;;;8.50;2.67;;;;;;;17.40;100.00;100819.28;4968109;28;20621;-87
2022/10/22 04:56:27;;;;;;;6.85;3.17;;;;;;;17.37;100.00;100824.91;4966937;28;20039;-88
2022/10/22 04:58:58;;;;;;;7.53;3.47;;;;;;;17.36;100.00;100821.44;4958460;28;20023;-87
2022/10/22 05:01:27;;;;;;;7.90;3.30;;;;;;;17.39;100.00;100815.00;4966775;28;20042;-87
2022/10/22 05:03:54;;;;;;;6.85;2.65;;;;;;;17.40;100.00;100806.91;4964252;28;20080;-88
2022/10/22 05:06:21;;;;;;;8.63;3.00;;;;;;;17.42;100.00;100802.28;4950322;28;20035;-87
2022/10/22 05:08:51;;;;;;;12.20;4.13;;;;;;;17.43;100.00;100806.56;4965859;28;20093;-87
2022/10/22 05:11:19;;;;;;;6.85;2.67;;;;;;;17.40;100.00;100796.38;4971473;28;20030;-87
2022/10/22 05:13:45;;;;;;;6.00;3.50;;;;;;;17.39;100.00;100800.00;4994743;28;20039;-88
2022/10/22 05:16:11;;;;;;;8.50;4.28;;;;;;;17.40;100.00;100793.75;4972012;28;20049;-87
2022/10/22 05:18:39;;;;;;;8.57;3.90;;;;;;;17.42;100.00;100783.03;4964858;28;20084;-87
2022/10/22 05:21:08;;;;;;;6.95;3.40;;;;;;;17.42;100.00;100781.22;4961754;28;20223;-86
2022/10/22 05:23:33;;;;;;;8.63;4.28;;;;;;;17.46;100.00;100784.31;4957129;28;20030;-87
2022/10/22 05:26:03;;;;;;;9.57;4.05;;;;;;;17.46;100.00;100781.69;4962732;28;20030;-87
2022/10/22 05:28:29;;;;;;;6.00;3.30;;;;;;;17.45;100.00;100783.50;4961968;28;20081;-87
2022/10/22 05:30:56;;;;;;;4.57;3.05;;;;;;;17.49;100.00;100790.00;4962012;28;20763;-86
2022/10/22 05:33:21;;;;;;;10.48;3.78;;;;;;;17.49;100.00;100790.00;4966228;28;20027;-86
2022/10/22 05:35:48;;;;;;;7.88;4.18;;;;;;;17.48;100.00;100790.22;4965289;28;20133;-87
2022/10/22 05:38:14;;;;;;;6.22;3.35;;;;;;;17.45;100.00;100787.94;4962065;28;20477;-87
2022/10/22 05:40:39;;;;;;;11.48;3.75;;;;;;;17.43;100.00;100790.75;4962324;28;20033;-86
2022/10/22 05:43:05;;;;;;;12.13;3.85;;;;;;;17.48;100.00;100801.56;4963067;28;20538;-88
2022/10/22 05:45:30;;;;;;;8.35;4.00;;;;;;;17.48;100.00;100804.19;4955530;28;20394;-88
2022/10/22 05:47:56;;;;;;;9.23;4.15;;;;;;;17.46;100.00;100803.56;4962863;28;20352;-87
2022/10/22 05:50:21;;;;;;;7.20;3.95;;;;;;;17.42;100.00;100802.28;4964784;28;20094;-87
2022/10/22 05:52:46;;;;;;;10.82;4.30;;;;;;;17.40;100.00;100804.28;4967560;28;20479;-87
2022/10/22 05:55:12;;;;;;;4.55;3.65;;;;;;;17.39;100.00;100804.47;4967030;28;20058;-86
2022/10/22 05:57:39;;;;;;;7.47;3.35;;;;;;;17.38;100.00;100800.19;4967858;28;20031;-87
2022/10/22 06:00:05;;;;;;;8.13;3.75;;;;;;;17.43;100.00;100814.47;4966282;28;20039;-88
2022/10/22 06:02:31;;;;;;;7.80;3.65;;;;;;;17.47;100.00;100813.09;4968162;28;20034;-87
2022/10/22 06:04:56;;;;;;;11.65;4.68;;;;;;;17.52;100.00;100815.16;4965239;28;20031;-86
2022/10/22 06:07:21;;;;;;;10.68;3.88;;;;;;;17.57;100.00;100823.34;4965859;28;20336;-87
2022/10/22 06:09:49;;;;;;;7.95;4.70;;;;;;;17.58;100.00;100819.72;4966979;28;20122;-86
2022/10/22 06:12:14;;;;;;;15.75;6.05;;;;;;;17.57;100.00;100818.91;4955412;28;20505;-86
2022/10/22 06:14:40;;;;;;;8.10;3.75;;;;;;;17.54;100.00;100808.72;4964463;28;20035;-86
2022/10/22 06:17:05;;;;;;;9.07;4.28;;;;;;;17.54;100.00;100808.72;4963476;28;20022;-86
2022/10/22 06:19:31;;;;;;;8.98;4.25;;;;;;;17.49;100.00;100815.53;4963980;28;20031;-87
2022/10/22 06:21:56;;;;;;;10.88;4.50;;;;;;;17.49;100.00;100816.34;4965814;28;20114;-87
2022/10/22 06:24:22;;;;;;;12.82;4.63;;;;;;;17.50;100.00;100815.34;4966313;28;20381;-86
2022/10/22 06:26:51;;;;;;;12.27;4.57;;;;;;;17.52;100.00;100818.63;4965617;28;20117;-86
2022/10/22 06:29:16;;;;;;;11.15;4.07;;;;;;;17.52;100.00;100818.63;4961740;28;20023;-86
2022/10/22 06:31:42;;;;;;;8.55;3.92;;;;;;;17.54;100.00;100821.88;4958658;28;20486;-87
2022/10/22 06:34:11;;;;;;;6.97;3.95;;;;;;;17.53;100.00;100817.63;4966754;28;20031;-86
2022/10/22 06:36:37;;;;;;;6.43;3.90;;;;;;;17.56;100.00;100816.44;4967723;28;20074;-87
2022/10/22 06:39:05;;;;;;;7.95;3.55;;;;;;;17.62;100.00;100809.63;4967550;28;20376;-87
2022/10/22 06:41:31;;;;;;;13.02;4.45;;;;;;;17.63;100.00;100812.09;4967290;28;20030;-87
2022/10/22 06:43:56;;;;;;;16.20;4.80;;;;;;;17.65;100.00;100823.28;4967318;28;20503;-87
2022/10/22 06:46:23;;;;;;;12.27;3.90;;;;;;;17.65;100.00;100825.94;4966420;28;20371;-87
2022/10/22 06:48:55;;;;;;;9.63;4.50;;;;;;;17.69;100.00;100823.75;4966618;28;20094;-87
2022/10/22 06:51:21;;;;;;;8.18;3.75;;;;;;;17.69;100.00;100821.94;4949439;28;20137;-86
2022/10/22 06:53:47;;;;;;;10.30;3.90;;;;;;;17.68;100.00;100825.56;4962891;28;20086;-87
2022/10/22 06:56:16;;;;;;;12.77;4.53;;;;;;;17.69;100.00;100821.13;4967375;28;20045;-87
2022/10/22 06:58:41;;;;;;;8.40;4.10;;;;;;;17.69;100.00;100832.47;4964000;28;20027;-87
2022/10/22 07:01:09;;;;;;;8.75;4.40;;;;;;;17.68;100.00;100827.38;4965896;28;20129;-86
2022/10/22 07:03:36;;;;;;;13.77;3.92;;;;;;;17.72;100.00;100831.28;4965686;28;20023;-86
2022/10/22 07:06:04;;;;;;;6.35;3.35;;;;;;;17.69;100.00;100835.09;4967319;28;20039;-87
2022/10/22 07:08:29;;;;;;;6.65;4.50;;;;;;;17.65;100.00;100838.25;4966109;28;20505;-86
2022/10/22 07:10:57;;;;;;;7.68;3.58;;;;;;;17.66;100.00;100839.91;4967144;28;20034;-87
2022/10/22 07:13:22;;;;;;;7.90;4.00;;;;;;;17.64;100.00;100829.53;4965813;28;20022;-87
2022/10/22 07:15:54;;;;;;;8.55;4.15;;;;;;;17.66;100.00;100834.66;4965824;28;20145;-87
2022/10/22 07:18:21;;;;;;;10.68;4.00;;;;;;;17.67;100.00;100828.38;4966074;28;20031;-86
2022/10/22 07:20:47;;;;;;;12.27;4.05;;;;;;;17.66;100.00;100821.47;4966968;28;20058;-87
2022/10/22 07:23:13;;;;;;;9.75;4.20;;;;;;;17.67;100.00;100823.09;4964936;28;20038;-87
2022/10/22 07:25:40;;;;;;;8.75;3.90;;;;;;;17.72;100.00;100831.28;4965429;28;20034;-87
2022/10/22 07:28:05;;;;;;;8.27;3.50;;;;;;;17.71;100.00;100833.09;4967650;28;20035;-87
2022/10/22 07:30:31;;;;;;;10.15;3.63;;;;;;;17.70;100.00;100838.56;4968879;28;20029;-87
2022/10/22 07:32:56;;;;;;;9.10;3.25;;;;;;;17.70;100.00;100844.66;4968850;28;20028;-86
2022/10/22 07:35:22;;;;;;;9.18;4.07;;;;;;;17.75;100.00;100847.56;4968352;28;20418;-87
2022/10/22 07:37:47;;;;;;;11.02;3.47;;;;;;;17.72;100.00;100845.28;4968340;28;20386;-87
2022/10/22 07:40:12;;;;;;;8.65;3.60;;;;;;;17.76;100.00;100843.94;4981633;28;20054;-87
2022/10/22 07:42:38;;;;;;;7.95;3.20;;;;;;;17.74;100.00;100850.38;4992015;28;20054;-86
2022/10/22 07:45:04;;;;;;;8.18;3.75;;;;;;;17.72;100.00;100850.56;4970821;28;20281;-86
2022/10/22 07:47:29;;;;;;;6.00;4.15;;;;;;;17.74;100.00;100858.28;4965994;28;20498;-87
2022/10/22 07:49:54;;;;;;;8.32;3.70;;;;;;;17.76;100.00;100853.66;4967981;28;20027;-87
2022/10/22 07:52:20;;;;;;;7.53;3.88;;;;;;;17.72;100.00;100847.91;4968477;28;20339;-86
2022/10/22 07:54:45;;;;;;;10.27;4.00;;;;;;;17.72;100.00;100858.47;4968609;28;20031;-87
2022/10/22 07:57:11;;;;;;;6.45;3.50;;;;;;;17.72;100.00;100855.81;4968662;28;20071;-86
2022/10/22 07:59:36;;;;;;;8.25;3.50;;;;;;;17.72;100.00;100861.09;4967935;28;20035;-86
2022/10/22 08:02:02;;;;;;;10.75;3.92;;;;;;;17.73;100.00;100856.66;4968478;28;20037;-86
2022/10/22 08:04:27;;;;;;;7.53;3.35;;;;;;;17.69;100.00;100855.38;4970780;28;20033;-86
2022/10/22 08:06:52;;;;;;;7.18;4.05;;;;;;;17.68;100.00;100856.38;4971024;28;20038;-86
2022/10/22 08:09:18;;;;;;;7.32;4.30;;;;;;;17.67;100.00;100875.81;4970947;28;20031;-87
2022/10/22 08:11:44;;;;;;;7.00;3.95;;;;;;;17.70;100.00;100870.19;4970075;28;20038;-86
2022/10/22 08:14:10;;;;;;;10.90;4.57;;;;;;;17.75;100.00;100860.75;4970902;28;20026;-87
2022/10/22 08:16:35;;;;;;;7.20;3.85;;;;;;;17.74;100.00;100864.38;4970884;28;20034;-87
2022/10/22 08:19:00;;;;;;;8.90;4.28;;;;;;;17.73;100.00;100854.00;4969604;28;20038;-86
2022/10/22 08:21:26;;;;;;;11.07;4.22;;;;;;;17.69;100.00;100865.91;4969152;28;20023;-86
2022/10/22 08:23:51;;;;;;;11.60;4.35;;;;;;;17.70;100.00;100857.00;4970832;28;20071;-86
2022/10/22 08:26:17;;;;;;;13.15;5.10;;;;;;;17.73;100.00;100864.56;4968737;28;20498;-86
2022/10/22 08:28:42;;;;;;;9.98;3.97;;;;;;;17.75;100.00;100852.84;4969298;28;20477;-86
2022/10/22 08:31:09;;;;;;;12.02;4.57;;;;;;;17.72;100.00;100853.19;4970829;28;20029;-86
2022/10/22 08:33:35;;;;;;;7.85;4.18;;;;;;;17.78;100.00;100854.28;4970513;28;20034;-86
2022/10/22 08:36:01;;;;;;;12.48;4.32;;;;;;;17.78;100.00;100863.00;4968690;28;20395;-86
2022/10/22 08:38:26;;;;;;;10.88;4.03;;;;;;;17.78;100.00;100859.56;4969470;28;20030;-87
2022/10/22 08:41:02;;;;;;;11.70;4.40;;;;;;;17.80;100.00;100861.00;4969034;28;20070;-87
2022/10/22 08:43:45;;;;;;;14.00;4.22;;;;;;;17.76;100.00;100859.75;4969285;28;20030;-87
2022/10/22 08:46:35;;;;;;;10.57;4.18;;;;;;;17.74;100.00;100866.19;4967071;28;20073;-86
2022/10/22 08:49:07;;;;;;;6.85;3.38;;;;;;;17.69;100.00;100864.09;4965564;28;20050;-87
2022/10/22 08:51:39;;;;;;;14.40;4.57;;;;;;;17.68;100.00;100864.28;4968032;28;20202;-86
2022/10/22 08:54:18;;;;;;;7.18;4.25;;;;;;;17.68;100.00;100867.72;4972332;28;20058;-87
2022/10/22 08:56:50;;;;;;;11.48;4.10;;;;;;;17.67;100.00;100854.72;4952003;29;20035;-86
2022/10/22 08:59:27;;;;;;;7.50;3.95;;;;;;;17.70;100.00;100859.63;4964019;28;20097;-86
2022/10/22 09:01:53;;;;;;;10.38;4.15;;;;;;;17.77;100.00;100860.56;4970781;28;20031;-87
2022/10/22 09:04:24;;;;;;;16.05;4.90;;;;;;;17.79;100.00;100861.19;4971087;28;20027;-86
2022/10/22 09:06:51;;;;;;;14.70;10.23;;;;;;;17.78;100.00;100864.81;4968695;28;20112;-87
2022/10/22 09:09:18;;;;;;;10.93;5.40;;;;;;;17.76;100.00;100859.75;4967331;28;20455;-86
2022/10/22 09:11:46;;;;;;;10.05;4.68;;;;;;;17.77;100.00;100871.09;4967135;28;20386;-87
2022/10/22 09:14:15;;;;;;;9.10;4.13;;;;;;;17.80;100.00;100868.91;4967626;28;20094;-87
2022/10/22 09:17:02;;;;;;;7.28;4.70;;;;;;;17.77;100.00;100877.19;4967163;28;20018;-87
2022/10/22 09:19:32;;;;;;;10.65;4.10;;;;;;;17.75;100.00;100873.91;4964981;28;20132;-87
2022/10/22 09:22:00;;;;;;;12.48;4.28;;;;;;;17.82;100.00;100864.28;4967491;28;20363;-87
2022/10/22 09:24:44;;;;;;;10.25;4.35;;;;;;;17.84;100.00;100872.00;4969207;28;20031;-86
2022/10/22 09:27:16;;;;;;;11.63;5.00;;;;;;;17.85;100.00;100871.00;4968551;28;20038;-88
2022/10/22 09:29:43;;;;;;;8.45;5.00;;;;;;;17.83;100.00;100873.00;4967042;28;20039;-88
2022/10/22 09:32:08;;;;;;;10.25;3.90;;;;;;;17.80;100.00;100871.56;4965948;28;20121;-86
2022/10/22 09:34:34;;;;;;;7.72;4.53;;;;;;;17.82;100.00;100884.56;4967410;28;20031;-86
2022/10/22 09:37:03;;;;;;;11.25;4.35;;;;;;;17.81;100.00;100872.38;4967982;28;20104;-87
2022/10/22 09:39:51;;;;;;;8.95;4.10;;;;;;;17.83;100.00;100870.38;4967634;28;20464;-88
2022/10/22 09:42:18;;;;;;;7.57;4.60;;;;;;;17.80;100.00;100876.81;4966024;28;20066;-87
2022/10/22 09:44:58;;;;;;;12.90;4.30;;;;;;;17.76;100.00;100874.72;4966620;28;20077;-87
2022/10/22 09:47:37;;;;;;;12.38;5.57;;;;;;;17.77;100.00;100876.38;4970701;28;20414;-87
2022/10/22 09:50:12;;;;;;;10.02;5.25;;;;;;;17.72;100.00;100869.00;4968338;28;20042;-87
2022/10/22 09:52:38;;;;;;;11.45;5.57;;;;;;;17.73;100.00;100867.19;4965505;28;20376;-87
2022/10/22 09:55:16;;;;;;;8.93;5.32;;;;;;;17.65;100.00;100869.88;4966257;28;20022;-86
2022/10/22 09:57:42;;;;;;;14.77;5.78;;;;;;;17.61;100.00;100866.78;4968425;28;20031;-87
2022/10/22 10:00:10;;;;;;;14.05;5.68;;;;;;;17.63;100.00;100863.97;4969534;28;20329;-86
2022/10/22 10:02:39;;;;;;;7.75;4.70;;;;;;;17.65;100.00;100868.09;4966782;28;20037;-86
2022/10/22 10:05:06;;;;;;;10.80;5.15;;;;;;;17.73;100.00;100864.56;4966762;28;20088;-86
2022/10/22 10:07:34;;;;;;;13.68;6.80;;;;;;;17.74;100.00;100866.19;4968003;28;20119;-86
2022/10/22 10:09:59;;;;;;;11.85;6.05;;;;;;;17.71;100.00;100871.81;4993205;28;20023;-87
2022/10/22 10:12:34;;;;;;;11.90;5.88;;;;;;;17.67;100.00;100867.91;4981720;28;20042;-85
2022/10/22 10:15:26;;;;;;;15.73;6.80;;;;;;;17.58;100.00;100867.94;4974128;28;20100;-86
2022/10/22 10:18:13;;;;;;;16.70;8.93;;;;;;;17.51;100.00;100867.03;4968696;28;20475;-86
2022/10/22 10:21:03;;;;;;;25.23;7.55;;;;;;;17.49;100.00;100860.31;4966297;28;20037;-86
2022/10/22 10:23:56;;;;;;;21.50;7.28;;;;;;;17.50;100.00;100854.84;4967563;28;20113;-85
2022/10/22 10:26:46;;;;;;;16.92;6.47;;;;;;;17.48;100.00;100856.88;4966147;28;20474;-85
2022/10/22 10:29:27;;;;;;;19.15;6.30;;;;;;;17.46;100.00;100860.69;4969230;28;20022;-85
2022/10/22 10:32:16;;;;;;;13.05;6.32;;;;;;;17.46;100.00;100856.25;4967884;28;20031;-86
2022/10/22 10:34:49;;;;;;;13.20;5.63;;;;;;;17.47;100.00;100862.34;4966682;28;20047;-86
2022/10/22 10:37:24;;;;;;;13.60;6.95;;;;;;;17.42;100.00;100851.50;4966442;28;20487;-86
2022/10/22 10:40:22;;;;;;;19.13;6.93;;;;;;;17.34;100.00;100851.59;4966642;28;20027;-85
2022/10/22 10:43:09;;;;;;;13.35;7.13;;;;;;;17.23;100.00;100847.56;4968337;28;20038;-85
2022/10/22 10:45:57;;;;;;;23.35;8.48;;;;;;;17.18;100.00;100842.00;4968852;28;20126;-85
2022/10/22 10:48:49;;;;;;;18.15;9.93;;;;;;;17.15;100.00;100839.72;4950015;28;20043;-85
2022/10/22 10:51:35;;;;;;;15.50;8.35;;;;;;;17.09;100.00;100840.44;4964898;28;20035;-85
2022/10/22 10:54:19;;;;;;;;;;;;;;;17.05;100.00;100839.16;4966806;28;20039;-85
2022/10/22 10:56:54;;;;;;;16.13;7.65;;;;;;;17.06;100.00;100838.97;4967858;28;19917;-85
2022/10/22 10:59:28;;;;;;;17.63;9.63;;;;;;;17.09;100.00;100840.44;4967623;28;20027;-85
2022/10/22 11:02:32;;;;;;;13.90;8.25;;;;;;;17.09;100.00;100837.81;4967019;28;20042;-85
2022/10/22 11:05:17;;;;;;;18.73;9.32;;;;;;;17.02;100.00;100829.81;4969360;28;20046;-85
2022/10/22 11:08:03;;;;;;;17.00;8.25;;;;;;;17.02;100.00;100818.44;4970508;28;20406;-85
2022/10/22 11:10:43;;;;;;;18.88;7.72;;;;;;;17.02;100.00;100827.16;4969842;28;20046;-84
2022/10/22 11:13:18;;;;;;;12.68;7.32;;;;;;;17.03;100.00;100814.81;4960277;28;20047;-85
2022/10/22 11:15:49;;;;;;;16.90;8.03;;;;;;;16.97;100.00;100811.13;4969949;28;20081;-85
2022/10/22 11:18:19;;;;;;;16.17;7.18;;;;;;;16.96;100.00;100804.22;4969624;28;20652;-85
2022/10/22 11:20:52;;;;;;;18.05;8.27;;;;;;;16.98;100.00;100810.13;4970906;28;20130;-85
2022/10/22 11:23:36;;;;;;;15.38;7.55;;;;;;;16.97;100.00;100807.66;4970312;28;20046;-85
2022/10/22 11:26:06;;;;;;;13.32;8.80;;;;;;;16.96;100.00;100800.78;4968865;28;20438;-85